| time (UTC) | temp F | wind direction | speed MPH | gust MPH | rain 1hr in | rain 24hr in | rain mn in | humidity % | barometer mb |
| 20260507070409 | 62 | 127 | 2.0 | 9.0 | 0.00 | 0.00 | 0.00 | 76 | 1013.7 |
| 20260507064914 | 61 | 80 | 1.0 | 3.0 | 0.00 | 0.00 | 0.00 | 78 | 1013.6 |
| 20260507064406 | 61 | 119 | 2.0 | 3.0 | 0.00 | 0.00 | 0.00 | 78 | 1013.4 |
| 20260507063906 | 61 | 80 | 2.0 | 5.0 | 0.00 | 0.00 | 0.00 | 79 | 1013.5 |
| 20260507061910 | 60 | 108 | 1.0 | 3.0 | 0.00 | 0.07 | 0.00 | 79 | 1013.3 |
| 20260507061406 | 60 | 100 | 2.0 | 6.0 | 0.00 | 0.07 | 0.00 | 79 | 1013.2 |
| 20260507060907 | 59 | 107 | 2.0 | 6.0 | 0.00 | 0.07 | 0.00 | 79 | 1013.1 |
| 20260507060406 | 59 | 110 | 2.0 | 3.0 | 0.00 | 0.07 | 0.00 | 79 | 1013.2 |
| 20260507054907 | 59 | 113 | 1.0 | 3.0 | 0.00 | 0.07 | 0.00 | 80 | 1013.1 |
| 20260507054407 | 59 | 124 | 2.0 | 5.0 | 0.00 | 0.07 | 0.00 | 80 | 1013.2 |
| 20260507053907 | 59 | 100 | 1.0 | 3.0 | 0.00 | 0.07 | 0.00 | 80 | 1013.1 |
| 20260507051907 | 59 | 107 | 3.0 | 6.0 | 0.00 | 0.07 | 0.00 | 80 | 1012.7 |
| 20260507051407 | 59 | 114 | 1.0 | 6.0 | 0.00 | 0.07 | 0.00 | 80 | 1012.6 |
| 20260507050906 | 59 | 129 | 1.0 | 3.0 | 0.00 | 0.07 | 0.00 | 80 | 1012.5 |
| 20260507050406 | 59 | 106 | 1.0 | 6.0 | 0.00 | 0.07 | 0.00 | 79 | 1012.5 |
| 20260507044910 | 59 | 66 | 2.0 | 7.0 | 0.00 | 0.07 | 0.00 | 79 | 1012.2 |
| 20260507044406 | 59 | 53 | 1.0 | 3.0 | 0.00 | 0.07 | 0.00 | 79 | 1012.3 |
| 20260507043906 | 59 | 103 | 1.0 | 3.0 | 0.00 | 0.07 | 0.00 | 80 | 1012.3 |
| 20260507043407 | 59 | 148 | 0.0 | 3.0 | 0.00 | 0.07 | 0.00 | 79 | 1012.3 |
| 20260507041907 | 59 | 123 | 1.0 | 3.0 | 0.00 | 0.08 | 0.00 | 79 | 1012.2 |
| 20260507041406 | 59 | 165 | 2.0 | 5.0 | 0.00 | 0.08 | 0.00 | 79 | 1012.2 |
| 20260507040906 | 59 | 113 | 0.0 | 2.0 | 0.00 | 0.08 | 0.00 | 79 | 1012.1 |
| 20260507040407 | 59 | 94 | 1.0 | 7.0 | 0.00 | 0.08 | 0.00 | 79 | 1012.0 |
| 20260507034906 | 59 | 99 | 2.0 | 8.0 | 0.00 | 0.09 | 0.00 | 79 | 1012.2 |
| 20260507034407 | 59 | 119 | 2.0 | 6.0 | 0.00 | 0.09 | 0.00 | 79 | 1012.1 |
| 20260507033407 | 59 | 68 | 1.0 | 6.0 | 0.00 | 0.09 | 0.00 | 80 | 1012.1 |
| 20260507031906 | 59 | 99 | 2.0 | 3.0 | 0.00 | 0.09 | 0.00 | 80 | 1012.1 |
| 20260507031406 | 59 | 110 | 2.0 | 7.0 | 0.00 | 0.09 | 0.00 | 80 | 1012.1 |
| 20260507030908 | 59 | 135 | 1.0 | 5.0 | 0.00 | 0.09 | 0.00 | 79 | 1012.1 |
| 20260507030408 | 59 | 108 | 3.0 | 6.0 | 0.00 | 0.09 | 0.00 | 79 | 1012.0 |
| 20260507024906 | 59 | 106 | 2.0 | 6.0 | 0.00 | 0.10 | 0.00 | 79 | 1012.1 |
| 20260507024406 | 59 | 100 | 1.0 | 3.0 | 0.00 | 0.11 | 0.00 | 79 | 1012.1 |
| 20260507023906 | 59 | 117 | 2.0 | 6.0 | 0.00 | 0.17 | 0.00 | 79 | 1012.1 |
| 20260507023406 | 59 | 109 | 2.0 | 6.0 | 0.00 | 0.25 | 0.00 | 79 | 1012.0 |
| 20260507021906 | 60 | 96 | 1.0 | 3.0 | 0.00 | 0.46 | 0.00 | 78 | 1012.2 |
| 20260507021406 | 60 | 95 | 3.0 | 8.0 | 0.00 | 0.59 | 0.00 | 78 | 1012.0 |
| 20260507020906 | 60 | 154 | 2.0 | 7.0 | 0.00 | 0.73 | 0.00 | 78 | 1012.1 |
| 20260507020406 | 60 | 100 | 2.0 | 7.0 | 0.00 | 0.93 | 0.00 | 78 | 1012.0 |
| 20260507014405 | 60 | 108 | 1.0 | 3.0 | 0.00 | 1.04 | 0.00 | 78 | 1012.1 |
| 20260507013906 | 60 | 113 | 2.0 | 3.0 | 0.00 | 1.05 | 0.00 | 78 | 1012.0 |
| 20260507013406 | 60 | 104 | 2.0 | 6.0 | 0.00 | 1.07 | 0.00 | 78 | 1012.1 |
| 20260507011906 | 60 | 142 | 1.0 | 3.0 | 0.00 | 1.16 | 0.00 | 78 | 1012.2 |
| 20260507011407 | 60 | 116 | 2.0 | 3.0 | 0.00 | 1.17 | 0.00 | 78 | 1012.1 |
| 20260507004906 | 60 | 77 | 1.0 | 3.0 | 0.00 | 1.23 | 0.00 | 77 | 1012.3 |
| 20260507004407 | 60 | 93 | 1.0 | 3.0 | 0.00 | 1.24 | 0.00 | 77 | 1012.3 |
| 20260507003408 | 60 | 118 | 1.0 | 5.0 | 0.00 | 1.24 | 0.00 | 77 | 1012.3 |
| 20260507001906 | 60 | 140 | 2.0 | 6.0 | 0.00 | 1.24 | 0.00 | 77 | 1012.2 |
| 20260507001406 | 60 | 138 | 2.0 | 5.0 | 0.00 | 1.24 | 0.00 | 77 | 1012.3 |
| 20260507000906 | 61 | 128 | 2.0 | 7.0 | 0.00 | 1.24 | 0.00 | 77 | 1012.3 |
| 20260507000406 | 61 | 119 | 1.0 | 8.0 | 0.00 | 1.24 | 0.00 | 77 | 1012.3 |
| 20260506234408 | 61 | 141 | 4.0 | 8.0 | 0.00 | 1.24 | 0.00 | 76 | 1012.4 |
| 20260506233406 | 60 | 149 | 2.0 | 5.0 | 0.00 | 1.24 | 0.00 | 76 | 1012.4 |
| 20260506231913 | 60 | 109 | 1.0 | 3.0 | 0.00 | 1.24 | 0.00 | 76 | 1012.5 |
| 20260506231407 | 60 | 104 | 2.0 | 3.0 | 0.00 | 1.24 | 0.00 | 76 | 1012.4 |
| 20260506230906 | 60 | 113 | 2.0 | 5.0 | 0.00 | 1.24 | 0.00 | 76 | 1012.4 |
| 20260506230409 | 60 | 130 | 2.0 | 7.0 | 0.00 | 1.24 | 0.00 | 76 | 1012.4 |
| 20260506224405 | 60 | 115 | 1.0 | 7.0 | 0.00 | 1.24 | 0.00 | 76 | 1012.4 |
| 20260506223907 | 60 | 129 | 2.0 | 6.0 | 0.00 | 1.24 | 0.00 | 76 | 1012.4 |
| 20260506223408 | 60 | 142 | 2.0 | 7.0 | 0.00 | 1.24 | 0.00 | 76 | 1012.4 |
| 20260506221911 | 60 | 137 | 1.0 | 3.0 | 0.00 | 1.24 | 0.00 | 76 | 1012.4 |
| 20260506221427 | 60 | 119 | 2.0 | 6.0 | 0.00 | 1.24 | 0.00 | 76 | 1012.3 |
| 20260506220906 | 60 | 122 | 1.0 | 3.0 | 0.00 | 1.24 | 0.00 | 76 | 1012.4 |
| 20260506220405 | 60 | 104 | 2.0 | 5.0 | 0.00 | 1.24 | 0.00 | 76 | 1012.4 |
| 20260506214909 | 60 | 134 | 2.0 | 5.0 | 0.00 | 1.24 | 1.24 | 77 | 1012.4 |
| 20260506213905 | 60 | 144 | 2.0 | 3.0 | 0.00 | 1.24 | 1.24 | 78 | 1012.4 |
| 20260506213405 | 60 | 129 | 2.0 | 7.0 | 0.00 | 1.24 | 1.24 | 78 | 1012.4 |
| 20260506211906 | 60 | 145 | 1.0 | 5.0 | 0.00 | 1.24 | 1.24 | 78 | 1012.3 |
| 20260506211405 | 60 | 104 | 1.0 | 6.0 | 0.00 | 1.24 | 1.24 | 78 | 1012.4 |
| 20260506210906 | 60 | 141 | 3.0 | 8.0 | 0.00 | 1.24 | 1.24 | 78 | 1012.4 |
| 20260506210409 | 60 | 147 | 1.0 | 5.0 | 0.00 | 1.24 | 1.24 | 78 | 1012.3 |
| 20260506204906 | 60 | 109 | 2.0 | 3.0 | 0.00 | 1.24 | 1.24 | 78 | 1012.3 |
| 20260506204406 | 60 | 106 | 1.0 | 3.0 | 0.00 | 1.24 | 1.24 | 78 | 1012.2 |
| 20260506203905 | 60 | 114 | 2.0 | 8.0 | 0.00 | 1.24 | 1.24 | 78 | 1012.2 |
| 20260506203405 | 60 | 126 | 1.0 | 5.0 | 0.00 | 1.24 | 1.24 | 78 | 1012.2 |
| 20260506201906 | 60 | 108 | 2.0 | 5.0 | 0.00 | 1.24 | 1.24 | 78 | 1012.2 |
| 20260506201405 | 60 | 109 | 1.0 | 5.0 | 0.00 | 1.24 | 1.24 | 79 | 1012.2 |
| 20260506200405 | 61 | 133 | 1.0 | 6.0 | 0.00 | 1.24 | 1.24 | 79 | 1012.1 |
| 20260506194906 | 61 | 110 | 2.0 | 3.0 | 0.00 | 1.24 | 1.24 | 80 | 1011.9 |
| 20260506194406 | 61 | 90 | 1.0 | 3.0 | 0.00 | 1.24 | 1.24 | 80 | 1011.8 |
| 20260506193406 | 61 | 160 | 1.0 | 6.0 | 0.00 | 1.24 | 1.24 | 80 | 1011.8 |
| 20260506191905 | 61 | 118 | 3.0 | 7.0 | 0.00 | 1.24 | 1.24 | 80 | 1011.5 |
| 20260506191405 | 61 | 159 | 2.0 | 7.0 | 0.00 | 1.24 | 1.24 | 81 | 1011.4 |
| 20260506190906 | 61 | 149 | 2.0 | 3.0 | 0.00 | 1.24 | 1.24 | 81 | 1011.3 |
| 20260506184905 | 61 | 140 | 2.0 | 6.0 | 0.00 | 1.24 | 1.24 | 81 | 1011.1 |
| 20260506184406 | 61 | 133 | 3.0 | 7.0 | 0.00 | 1.24 | 1.24 | 81 | 1011.1 |
| 20260506183408 | 61 | 133 | 3.0 | 8.0 | 0.00 | 1.24 | 1.24 | 81 | 1011.0 |
| 20260506181906 | 61 | 175 | 2.0 | 5.0 | 0.00 | 1.24 | 1.24 | 80 | 1010.8 |
| 20260506181405 | 61 | 135 | 3.0 | 6.0 | 0.00 | 1.24 | 1.24 | 81 | 1010.8 |
| 20260506180405 | 61 | 125 | 2.0 | 8.0 | 0.00 | 1.24 | 1.24 | 80 | 1010.5 |
| 20260506174408 | 62 | 130 | 3.0 | 9.0 | 0.00 | 1.24 | 1.24 | 79 | 1010.5 |
| 20260506173920 | 62 | 129 | 3.0 | 7.0 | 0.00 | 1.24 | 1.24 | 79 | 1010.5 |
| 20260506173405 | 62 | 151 | 3.0 | 8.0 | 0.00 | 1.24 | 1.24 | 79 | 1010.5 |
| 20260506171905 | 63 | 180 | 3.0 | 7.0 | 0.00 | 1.24 | 1.24 | 77 | 1010.4 |
| 20260506171405 | 63 | 156 | 4.0 | 8.0 | 0.00 | 1.24 | 1.24 | 77 | 1010.3 |
| 20260506170906 | 63 | 152 | 3.0 | 8.0 | 0.00 | 1.24 | 1.24 | 77 | 1010.3 |
| 20260506170405 | 63 | 124 | 3.0 | 9.0 | 0.00 | 1.24 | 1.24 | 77 | 1010.2 |
| 20260506164905 | 63 | 110 | 2.0 | 8.0 | 0.00 | 1.24 | 1.24 | 76 | 1010.3 |
| 20260506164406 | 63 | 161 | 4.0 | 8.0 | 0.00 | 1.24 | 1.24 | 77 | 1010.3 |
| 20260506163905 | 63 | 147 | 3.0 | 6.0 | 0.00 | 1.24 | 1.24 | 77 | 1010.4 |
| 20260506163405 | 63 | 148 | 3.0 | 7.0 | 0.00 | 1.24 | 1.24 | 78 | 1010.4 |
| 20260506161913 | 63 | 134 | 2.0 | 7.0 | 0.00 | 1.24 | 1.24 | 77 | 1010.3 |
| 20260506161404 | 64 | 140 | 3.0 | 8.0 | 0.00 | 1.24 | 1.24 | 77 | 1010.3 |
| 20260506160905 | 64 | 156 | 5.0 | 8.0 | 0.00 | 1.24 | 1.24 | 77 | 1010.3 |
| 20260506160405 | 64 | 158 | 3.0 | 9.0 | 0.00 | 1.24 | 1.24 | 77 | 1010.2 |
| 20260506154904 | 65 | 149 | 5.0 | 9.0 | 0.00 | 1.24 | 1.24 | 77 | 1010.2 |
| 20260506154405 | 65 | 192 | 2.0 | 7.0 | 0.00 | 1.24 | 1.24 | 79 | 1010.2 |
| 20260506153905 | 65 | 134 | 6.0 | 12.0 | 0.00 | 1.24 | 1.24 | 80 | 1010.2 |
| 20260506153404 | 64 | 141 | 5.0 | 9.0 | 0.00 | 1.24 | 1.24 | 79 | 1010.1 |
| 20260506151904 | 64 | 168 | 2.0 | 7.0 | 0.00 | 1.24 | 1.24 | 79 | 1010.2 |
| 20260506151407 | 64 | 163 | 3.0 | 7.0 | 0.00 | 1.24 | 1.24 | 78 | 1010.2 |
| 20260506150910 | 64 | 152 | 3.0 | 9.0 | 0.00 | 1.24 | 1.24 | 78 | 1010.3 |
| 20260506144904 | 65 | 197 | 1.0 | 3.0 | 0.00 | 1.24 | 1.24 | 79 | 1010.2 |
| 20260506144405 | 65 | 160 | 2.0 | 6.0 | 0.00 | 1.24 | 1.24 | 76 | 1010.1 |
| 20260506143905 | 66 | 181 | 2.0 | 5.0 | 0.00 | 1.24 | 1.24 | 75 | 1010.1 |
| 20260506143405 | 67 | 205 | 2.0 | 6.0 | 0.00 | 1.24 | 1.24 | 74 | 1010.1 |
| 20260506141904 | 68 | 142 | 3.0 | 6.0 | 0.00 | 1.24 | 1.24 | 73 | 1010.2 |
| 20260506141405 | 68 | 222 | 1.0 | 5.0 | 0.00 | 1.24 | 1.24 | 74 | 1010.2 |
| 20260506140405 | 68 | 196 | 1.0 | 5.0 | 0.00 | 1.24 | 1.24 | 75 | 1010.2 |
| 20260506134405 | 67 | 214 | 1.0 | 3.0 | 0.00 | 1.24 | 1.24 | 76 | 1010.3 |
| 20260506133905 | 67 | 236 | 1.0 | 8.0 | 0.00 | 1.24 | 1.24 | 78 | 1010.3 |
| 20260506133405 | 66 | 227 | 5.0 | 8.0 | 0.00 | 1.24 | 1.24 | 76 | 1010.4 |
| 20260506131904 | 66 | 243 | 3.0 | 8.0 | 0.00 | 1.24 | 1.24 | 79 | 1010.4 |
| 20260506131405 | 67 | 145 | 1.0 | 6.0 | 0.00 | 1.24 | 1.24 | 80 | 1010.4 |
| 20260506130907 | 67 | 141 | 3.0 | 6.0 | 0.00 | 1.24 | 1.24 | 81 | 1010.3 |
| 20260506130407 | 66 | 151 | 3.0 | 8.0 | 0.00 | 1.24 | 1.24 | 81 | 1010.3 |
| 20260506124905 | 66 | 186 | 3.0 | 5.0 | 0.00 | 1.24 | 1.24 | 81 | 1010.3 |
| 20260506123905 | 65 | 167 | 4.0 | 7.0 | 0.00 | 1.24 | 1.24 | 83 | 1010.2 |
| 20260506123405 | 65 | 171 | 3.0 | 8.0 | 0.00 | 1.24 | 1.24 | 83 | 1010.2 |
| 20260506121904 | 65 | 160 | 3.0 | 7.0 | 0.00 | 1.24 | 1.24 | 82 | 1010.1 |
| 20260506120904 | 65 | 161 | 3.0 | 7.0 | 0.00 | 1.24 | 1.24 | 82 | 1010.1 |
| 20260506120404 | 65 | 156 | 3.0 | 8.0 | 0.00 | 1.24 | 1.24 | 81 | 1010.0 |
| 20260506114904 | 67 | 163 | 2.0 | 7.0 | 0.00 | 1.24 | 1.24 | 80 | 1010.0 |
| 20260506114404 | 67 | 123 | 2.0 | 7.0 | 0.00 | 1.24 | 1.24 | 80 | 1010.0 |
| 20260506111920 | 65 | 137 | 1.0 | 5.0 | 0.00 | 1.24 | 1.24 | 84 | 1010.0 |
| 20260506110905 | 64 | 184 | 2.0 | 7.0 | 0.00 | 1.24 | 1.24 | 83 | 1010.0 |
| 20260506110404 | 65 | 167 | 3.0 | 6.0 | 0.00 | 1.24 | 1.24 | 82 | 1010.0 |
| 20260506104905 | 65 | 149 | 3.0 | 5.0 | 0.00 | 1.24 | 1.24 | 82 | 1010.1 |
| 20260506103904 | 66 | 174 | 2.0 | 3.0 | 0.00 | 1.24 | 1.24 | 81 | 1010.0 |
| 20260506103404 | 66 | 234 | 2.0 | 5.0 | 0.00 | 1.24 | 1.24 | 81 | 1010.1 |
| 20260506101404 | 64 | 233 | 2.0 | 3.0 | 0.00 | 1.24 | 1.24 | 84 | 1010.1 |
| 20260506100910 | 64 | 187 | 1.0 | 3.0 | 0.00 | 1.24 | 1.24 | 84 | 1010.0 |
| 20260506094905 | 64 | 221 | 2.0 | 3.0 | 0.00 | 1.24 | 1.24 | 85 | 1009.9 |
| 20260506094405 | 64 | 193 | 1.0 | 3.0 | 0.00 | 1.24 | 1.24 | 85 | 1009.9 |
| 20260506093405 | 64 | 230 | 1.0 | 5.0 | 0.00 | 1.24 | 1.24 | 86 | 1010.0 |
| 20260506091909 | 64 | 249 | 1.0 | 5.0 | 0.00 | 1.24 | 1.24 | 87 | 1009.8 |
| 20260506091407 | 64 | 215 | 1.0 | 3.0 | 0.00 | 1.24 | 1.24 | 86 | 1009.7 |
| 20260506090906 | 64 | 221 | 2.0 | 6.0 | 0.00 | 1.24 | 1.24 | 86 | 1009.7 |
| 20260506090410 | 64 | 249 | 1.0 | 6.0 | 0.00 | 1.24 | 1.24 | 87 | 1009.5 |
| 20260506084907 | 65 | 229 | 1.0 | 9.0 | 0.00 | 1.24 | 1.24 | 88 | 1009.4 |
| 20260506084407 | 65 | 251 | 3.0 | 5.0 | 0.00 | 1.24 | 1.24 | 88 | 1009.4 |
| 20260506083909 | 64 | 195 | 2.0 | 8.0 | 0.00 | 1.24 | 1.24 | 89 | 1009.3 |
| 20260506083407 | 64 | 203 | 2.0 | 12.0 | 0.00 | 1.24 | 1.24 | 91 | 1009.3 |
| 20260506081908 | 63 | 114 | 2.0 | 3.0 | 0.00 | 1.24 | 1.24 | 91 | 1009.1 |
| 20260506081407 | 63 | 74 | 3.0 | 8.0 | 0.00 | 1.24 | 1.24 | 92 | 1009.1 |
| 20260506080908 | 63 | 227 | 3.0 | 9.0 | 0.00 | 1.24 | 1.24 | 92 | 1009.0 |
| 20260506080406 | 63 | 279 | 3.0 | 14.0 | 0.00 | 1.24 | 1.24 | 92 | 1009.1 |
| 20260506073407 | 62 | 146 | 7.0 | 14.0 | 0.01 | 1.25 | 1.24 | 91 | 1009.0 |
| 20260506071906 | 62 | 143 | 7.0 | 14.0 | 0.07 | 1.25 | 1.24 | 91 | 1008.8 |
| 20260506071406 | 62 | 151 | 9.0 | 15.0 | 0.07 | 1.25 | 1.24 | 91 | 1008.9 |